Bushnell, Utah
Current Conditions -  °F | °C
As of 12:35 PM on Thursday 23 Oct 2014 (Local Time) from KBMC Reporting Station
Clear Clear  
Wind Chill: 61°   Ceiling: Unl
Heat Index: 61°   Visibility: 10mi
Dew Point: 30°   Wind: 0mph
Humidity: 31%   Direction: NA
Pressure: 30.16"   Gusts: NA
Location:  41.4833°N, 112.095°W
Report Text: KBMC 231835Z AUTO 00000KT 10SM CLR 16/M01 A3016 RMK AO1 T01621010
Loading
Personal Weather Stations






























Interactive Weather Map
Tropical Storm Tracking
New forecast layout! Learn more

10-Day Weather Forecast

Advertisements
Track Severe Weather on mobile